Time;durP1;ratioP1;P1;durP2;ratioP2;P2;SDS_P1;SDS_P2;PMS_P1;PMS_P2;Temp;Humidity;BMP_temperature;BMP_pressure;BME280_temperature;BME280_humidity;BME280_pressure;Samples;Min_cycle;Max_cycle;Signal;HPM_P1;HPM_P2
2023/04/25 00:00:14;;;;;;;9.00;7.57;;;7.30;99.90;;;;;;514055;231;28021;-72
2023/04/25 00:02:15;;;;;;;10.53;8.03;;;7.30;99.90;;;;;;513967;231;28409;-73
2023/04/25 00:04:16;;;;;;;9.47;7.83;;;7.40;99.90;;;;;;514056;231;27480;-74
2023/04/25 00:06:20;;;;;;;10.90;8.70;;;7.40;99.90;;;;;;513987;231;27894;-73
2023/04/25 00:08:21;;;;;;;9.40;7.20;;;7.40;99.90;;;;;;514009;231;27855;-73
2023/04/25 00:10:23;;;;;;;10.43;7.97;;;7.40;99.90;;;;;;514041;231;27710;-73
2023/04/25 00:12:24;;;;;;;13.30;9.20;;;7.40;99.90;;;;;;514042;231;27563;-73
2023/04/25 00:14:25;;;;;;;11.80;8.30;;;7.40;99.90;;;;;;513949;231;27896;-72
2023/04/25 00:16:26;;;;;;;9.77;7.87;;;7.40;99.90;;;;;;514047;231;27985;-74
2023/04/25 00:18:33;;;;;;;15.60;9.80;;;7.40;99.90;;;;;;514040;231;27813;-72
2023/04/25 00:20:32;;;;;;;9.37;8.13;;;7.40;99.90;;;;;;513862;231;27481;-72
2023/04/25 00:22:34;;;;;;;9.57;7.90;;;7.40;99.90;;;;;;514016;231;28011;-73
2023/04/25 00:24:34;;;;;;;9.13;7.70;;;7.40;99.90;;;;;;513871;231;28160;-74
2023/04/25 00:26:36;;;;;;;10.40;8.13;;;7.40;99.90;;;;;;514047;231;27769;-73
2023/04/25 00:28:37;;;;;;;11.10;9.63;;;7.40;99.90;;;;;;513969;231;28473;-73
2023/04/25 00:30:38;;;;;;;11.80;7.97;;;7.40;99.90;;;;;;514031;231;28224;-72
2023/04/25 00:32:39;;;;;;;12.07;8.33;;;7.40;99.90;;;;;;514026;231;27983;-73
2023/04/25 00:34:41;;;;;;;10.00;8.50;;;7.40;99.90;;;;;;513936;231;27731;-73
2023/04/25 00:36:42;;;;;;;8.90;7.67;;;7.40;99.90;;;;;;514018;231;27947;-72
2023/04/25 00:38:43;;;;;;;8.90;7.50;;;7.40;99.90;;;;;;513990;231;27879;-73
2023/04/25 00:40:44;;;;;;;9.43;7.53;;;7.40;99.90;;;;;;513995;231;27567;-73
2023/04/25 00:42:46;;;;;;;10.00;7.00;;;7.40;99.90;;;;;;514004;231;27794;-73
2023/04/25 00:44:47;;;;;;;8.17;7.10;;;7.40;99.90;;;;;;513995;231;27710;-74
2023/04/25 00:46:51;;;;;;;7.80;7.00;;;7.40;99.90;;;;;;514018;231;27795;-72
2023/04/25 00:48:49;;;;;;;10.93;7.87;;;7.40;99.90;;;;;;513791;231;27671;-73
2023/04/25 00:50:51;;;;;;;8.83;7.67;;;7.30;99.90;;;;;;513935;231;27888;-72
2023/04/25 00:52:52;;;;;;;8.83;7.50;;;7.40;99.90;;;;;;513925;231;28259;-73
2023/04/25 00:54:53;;;;;;;11.50;8.50;;;7.40;99.90;;;;;;513922;231;27780;-74
2023/04/25 00:56:54;;;;;;;8.50;7.60;;;7.30;99.90;;;;;;513964;231;27862;-73
2023/04/25 00:58:56;;;;;;;9.90;8.37;;;7.30;99.90;;;;;;514002;231;28189;-73
2023/04/25 01:00:57;;;;;;;8.47;7.33;;;7.30;99.90;;;;;;513970;231;28407;-70
2023/04/25 01:02:58;;;;;;;10.30;8.40;;;7.30;99.90;;;;;;513998;231;28352;-73
2023/04/25 01:04:59;;;;;;;10.50;8.43;;;7.30;99.90;;;;;;513980;231;28210;-73
2023/04/25 01:07:02;;;;;;;12.17;9.47;;;7.30;99.90;;;;;;514034;231;27824;-73
2023/04/25 01:09:02;;;;;;;9.43;7.90;;;7.30;99.90;;;;;;513851;231;27885;-73
2023/04/25 01:11:04;;;;;;;10.33;8.30;;;7.20;99.90;;;;;;514006;231;27932;-72
2023/04/25 01:13:04;;;;;;;10.50;9.40;;;7.20;99.90;;;;;;513963;231;27783;-73
2023/04/25 01:15:06;;;;;;;10.50;8.73;;;7.20;99.90;;;;;;513998;231;27695;-72
2023/04/25 01:17:08;;;;;;;11.53;7.27;;;7.20;99.90;;;;;;514033;231;27737;-73
2023/04/25 01:19:08;;;;;;;12.00;8.20;;;7.10;99.90;;;;;;513933;231;27811;-73
2023/04/25 01:21:09;;;;;;;8.37;7.40;;;7.10;99.90;;;;;;514057;231;27629;-73
2023/04/25 01:23:11;;;;;;;9.63;8.07;;;7.10;99.90;;;;;;514035;231;27888;-72
2023/04/25 01:25:12;;;;;;;9.80;8.40;;;7.10;99.90;;;;;;513990;231;27824;-74
2023/04/25 01:27:13;;;;;;;9.90;7.97;;;7.10;99.90;;;;;;514060;231;27838;-73
2023/04/25 01:29:14;;;;;;;8.63;6.93;;;7.10;99.90;;;;;;514043;231;28380;-73
2023/04/25 01:31:16;;;;;;;10.83;8.23;;;7.10;99.90;;;;;;514024;231;28260;-72
2023/04/25 01:33:17;;;;;;;10.47;8.37;;;7.10;99.90;;;;;;514031;231;28302;-72
2023/04/25 01:35:18;;;;;;;9.33;7.47;;;7.00;99.90;;;;;;513978;231;28139;-74
2023/04/25 01:37:19;;;;;;;11.67;9.20;;;7.00;99.90;;;;;;514031;231;28465;-73
2023/04/25 01:39:21;;;;;;;9.83;7.90;;;7.00;99.90;;;;;;514058;231;27916;-73
2023/04/25 01:41:23;;;;;;;8.47;7.23;;;7.00;99.90;;;;;;514062;231;27876;-72
2023/04/25 01:43:23;;;;;;;8.10;7.00;;;6.90;99.90;;;;;;514047;231;27725;-72
2023/04/25 01:45:25;;;;;;;10.47;8.07;;;6.90;99.90;;;;;;514013;231;27810;-72
2023/04/25 01:47:26;;;;;;;8.40;7.50;;;6.70;99.90;;;;;;514103;231;27793;-72
2023/04/25 01:49:27;;;;;;;8.37;7.30;;;7.00;99.90;;;;;;514089;231;27978;-74
2023/04/25 01:51:28;;;;;;;9.90;7.93;;;7.00;99.90;;;;;;514046;231;27875;-72
2023/04/25 01:53:29;;;;;;;9.17;7.33;;;7.00;99.90;;;;;;514052;231;27977;-73
2023/04/25 01:55:31;;;;;;;9.37;6.90;;;7.00;99.90;;;;;;513936;231;27780;-73
2023/04/25 01:57:32;;;;;;;8.90;7.17;;;7.00;99.90;;;;;;514060;231;27660;-72
2023/04/25 01:59:33;;;;;;;10.60;8.23;;;6.90;99.90;;;;;;514061;231;27798;-73
2023/04/25 02:01:34;;;;;;;9.33;7.83;;;6.90;99.90;;;;;;514056;231;28025;-72
2023/04/25 02:03:36;;;;;;;7.90;6.93;;;6.80;99.90;;;;;;514031;231;28320;-73
2023/04/25 02:05:37;;;;;;;8.53;6.70;;;6.80;99.90;;;;;;513967;231;28746;-73
2023/04/25 02:07:38;;;;;;;8.67;7.40;;;6.80;99.90;;;;;;514017;231;28056;-72
2023/04/25 02:09:39;;;;;;;11.20;8.70;;;6.80;99.90;;;;;;514064;231;28326;-73
2023/04/25 02:11:41;;;;;;;8.97;7.73;;;6.80;99.90;;;;;;514045;231;28286;-73
2023/04/25 02:13:42;;;;;;;9.60;8.13;;;6.70;99.90;;;;;;513989;231;27815;-72
2023/04/25 02:15:43;;;;;;;10.60;8.70;;;6.70;99.90;;;;;;513928;231;27820;-73
2023/04/25 02:17:45;;;;;;;11.90;8.87;;;6.70;99.90;;;;;;514046;231;27693;-73
2023/04/25 02:19:46;;;;;;;10.15;8.52;;;6.70;99.90;;;;;;514019;231;27796;-72
2023/04/25 02:21:47;;;;;;;12.13;9.03;;;6.70;99.90;;;;;;513998;231;27342;-72
2023/04/25 02:23:49;;;;;;;11.20;9.33;;;6.70;99.90;;;;;;513996;231;27702;-73
2023/04/25 02:25:49;;;;;;;11.17;9.60;;;6.70;99.90;;;;;;513925;231;28674;-73
2023/04/25 02:27:51;;;;;;;11.13;8.40;;;6.70;99.90;;;;;;514046;231;28315;-73
2023/04/25 02:29:52;;;;;;;11.70;9.20;;;6.70;99.90;;;;;;514038;231;28191;-73
2023/04/25 02:31:53;;;;;;;10.23;9.10;;;6.70;99.90;;;;;;514033;231;28176;-73
2023/04/25 02:33:54;;;;;;;12.23;9.40;;;6.70;99.90;;;;;;514035;231;28117;-72
2023/04/25 02:35:56;;;;;;;12.50;10.07;;;6.70;99.90;;;;;;513986;231;27908;-74
2023/04/25 02:37:57;;;;;;;14.57;9.40;;;6.70;99.90;;;;;;514041;231;27780;-72
2023/04/25 02:39:58;;;;;;;11.17;8.90;;;6.70;99.90;;;;;;514037;231;27919;-72
2023/04/25 02:42:00;;;;;;;14.30;10.07;;;6.70;99.90;;;;;;514030;231;28310;-73
2023/04/25 02:44:01;;;;;;;11.83;9.33;;;6.80;99.90;;;;;;513992;231;27506;-73
2023/04/25 02:46:02;;;;;;;11.63;8.93;;;6.80;99.90;;;;;;513984;231;27921;-74
2023/04/25 02:48:03;;;;;;;11.57;9.27;;;6.80;99.90;;;;;;514051;231;27927;-72
2023/04/25 02:50:04;;;;;;;9.77;8.60;;;6.80;99.90;;;;;;514007;231;28186;-73
2023/04/25 02:52:06;;;;;;;11.43;8.83;;;6.80;99.90;;;;;;514038;231;28599;-72
2023/04/25 02:54:07;;;;;;;11.10;8.10;;;6.80;99.90;;;;;;514017;231;28173;-72
2023/04/25 02:56:08;;;;;;;12.43;9.63;;;6.90;99.90;;;;;;513998;231;28420;-74
2023/04/25 02:58:10;;;;;;;16.90;10.10;;;6.90;99.90;;;;;;514003;231;28096;-72
2023/04/25 03:00:11;;;;;;;11.00;9.17;;;6.90;99.90;;;;;;513974;231;27914;-73
2023/04/25 03:02:12;;;;;;;10.40;8.33;;;6.90;99.90;;;;;;513885;231;27740;-73
2023/04/25 03:04:13;;;;;;;16.50;8.97;;;6.90;99.90;;;;;;513842;231;27932;-73
2023/04/25 03:06:15;;;;;;;10.53;9.43;;;6.90;99.90;;;;;;513847;231;27845;-73
2023/04/25 03:08:16;;;;;;;10.50;8.60;;;7.00;99.90;;;;;;514031;231;27889;-73
2023/04/25 03:10:17;;;;;;;12.63;9.87;;;6.90;99.90;;;;;;514062;231;27769;-74
2023/04/25 03:12:18;;;;;;;14.87;10.17;;;7.00;99.90;;;;;;514052;231;27897;-72
2023/04/25 03:14:20;;;;;;;13.23;9.97;;;7.00;99.90;;;;;;514013;231;27823;-73
2023/04/25 03:16:21;;;;;;;11.87;9.80;;;7.00;99.90;;;;;;514069;231;28470;-74
2023/04/25 03:18:22;;;;;;;11.40;9.07;;;7.10;99.90;;;;;;514061;231;28363;-73
2023/04/25 03:20:23;;;;;;;14.37;9.67;;;7.00;99.90;;;;;;514059;231;28075;-73
2023/04/25 03:22:24;;;;;;;16.20;11.53;;;7.10;99.90;;;;;;514028;231;28105;-72
2023/04/25 03:24:26;;;;;;;14.30;11.40;;;7.00;99.90;;;;;;513965;231;27911;-73
2023/04/25 03:26:27;;;;;;;16.13;10.97;;;7.00;99.90;;;;;;514023;231;27821;-75
2023/04/25 03:28:28;;;;;;;12.80;10.17;;;7.00;99.90;;;;;;514028;231;27751;-73
2023/04/25 03:30:29;;;;;;;18.27;11.87;;;6.90;99.90;;;;;;514025;231;27712;-73
2023/04/25 03:32:31;;;;;;;14.37;11.30;;;7.00;99.90;;;;;;514026;231;27488;-73
2023/04/25 03:34:32;;;;;;;16.20;11.00;;;7.00;99.90;;;;;;513929;231;27702;-72
2023/04/25 03:36:33;;;;;;;14.00;11.40;;;6.90;99.90;;;;;;514024;231;28309;-73
2023/04/25 03:38:35;;;;;;;13.40;11.03;;;6.90;99.90;;;;;;514023;231;28327;-72
2023/04/25 03:40:36;;;;;;;14.70;11.37;;;6.90;99.90;;;;;;514010;231;28321;-70
2023/04/25 03:42:37;;;;;;;16.70;12.60;;;6.90;99.90;;;;;;514036;231;27660;-72
2023/04/25 03:44:38;;;;;;;18.47;13.73;;;6.90;99.90;;;;;;513971;231;27542;-73
2023/04/25 03:46:40;;;;;;;14.93;12.00;;;6.90;99.90;;;;;;514073;231;27827;-73
2023/04/25 03:48:41;;;;;;;14.40;11.50;;;6.80;99.90;;;;;;514013;231;27691;-72
2023/04/25 03:50:42;;;;;;;14.87;12.13;;;6.80;99.90;;;;;;514001;231;27795;-72
2023/04/25 03:52:43;;;;;;;13.40;11.13;;;6.80;99.90;;;;;;513993;231;27822;-72
2023/04/25 03:54:45;;;;;;;18.63;12.77;;;6.80;99.90;;;;;;513946;231;28016;-73
2023/04/25 03:56:46;;;;;;;14.80;12.03;;;6.80;99.90;;;;;;514002;231;28387;-73
2023/04/25 03:58:47;;;;;;;12.93;11.20;;;6.70;99.90;;;;;;514010;231;28803;-72
2023/04/25 04:00:48;;;;;;;15.17;10.90;;;6.80;99.90;;;;;;514031;231;28731;-73
2023/04/25 04:02:50;;;;;;;13.03;10.57;;;6.80;99.90;;;;;;514022;231;28007;-72
2023/04/25 04:04:51;;;;;;;14.33;11.83;;;6.80;99.90;;;;;;513966;231;28114;-72
2023/04/25 04:06:52;;;;;;;12.93;11.10;;;6.90;99.90;;;;;;514037;231;27848;-73
2023/04/25 04:08:53;;;;;;;12.37;10.60;;;6.80;99.90;;;;;;514007;231;28728;-73
2023/04/25 04:10:55;;;;;;;22.33;10.90;;;6.90;99.90;;;;;;514012;231;28781;-72
2023/04/25 04:12:56;;;;;;;14.50;11.10;;;6.90;99.90;;;;;;514010;231;28685;-72
2023/04/25 04:14:57;;;;;;;16.60;12.90;;;6.90;99.90;;;;;;513966;231;28390;-73
2023/04/25 04:16:58;;;;;;;14.77;12.30;;;6.90;99.90;;;;;;514027;231;28445;-73
2023/04/25 04:19:00;;;;;;;16.00;12.63;;;7.00;99.90;;;;;;514008;231;27890;-73
2023/04/25 04:21:01;;;;;;;18.40;13.47;;;6.90;99.90;;;;;;514040;231;28040;-73
2023/04/25 04:23:02;;;;;;;19.80;13.37;;;7.00;99.90;;;;;;514009;231;27888;-72
2023/04/25 04:25:05;;;;;;;16.50;12.27;;;7.00;99.90;;;;;;513989;231;27832;-72
2023/04/25 04:27:05;;;;;;;17.70;13.47;;;7.00;99.90;;;;;;514020;231;27942;-73
2023/04/25 04:29:06;;;;;;;17.10;13.20;;;7.00;99.90;;;;;;514008;231;27990;-73
2023/04/25 04:31:07;;;;;;;16.90;13.17;;;7.00;99.90;;;;;;513938;231;27942;-73
2023/04/25 04:33:08;;;;;;;17.13;13.60;;;7.00;99.90;;;;;;513834;231;29842;-73
2023/04/25 04:35:10;;;;;;;17.20;12.97;;;6.90;99.90;;;;;;513809;231;28392;-73
2023/04/25 04:37:12;;;;;;;17.70;14.63;;;7.00;99.90;;;;;;513981;231;27809;-74
2023/04/25 04:39:12;;;;;;;17.43;13.40;;;7.00;99.90;;;;;;514015;231;27932;-73
2023/04/25 04:41:14;;;;;;;17.63;14.27;;;7.10;99.90;;;;;;513994;231;27913;-73
2023/04/25 04:43:16;;;;;;;17.37;13.50;;;7.10;99.90;;;;;;514025;231;27922;-73
2023/04/25 04:45:16;;;;;;;15.73;13.53;;;7.10;99.90;;;;;;514002;231;27831;-73
2023/04/25 04:47:17;;;;;;;17.63;13.37;;;7.10;99.90;;;;;;514036;231;27482;-74
2023/04/25 04:49:18;;;;;;;17.13;12.93;;;7.10;99.90;;;;;;514055;231;28217;-73
2023/04/25 04:51:20;;;;;;;19.60;14.70;;;7.00;99.90;;;;;;514047;231;28527;-73
2023/04/25 04:53:21;;;;;;;14.93;12.73;;;7.00;99.90;;;;;;514041;231;28426;-73
2023/04/25 04:55:22;;;;;;;16.30;13.33;;;7.00;99.90;;;;;;513997;231;27801;-73
2023/04/25 04:57:23;;;;;;;17.00;13.60;;;7.00;99.90;;;;;;514085;231;27876;-73
2023/04/25 04:59:25;;;;;;;16.20;13.43;;;7.00;99.90;;;;;;514041;231;27682;-73
2023/04/25 05:01:26;;;;;;;16.30;13.40;;;7.10;99.90;;;;;;514045;231;27867;-73
2023/04/25 05:03:27;;;;;;;23.53;15.37;;;7.10;99.90;;;;;;514017;231;27571;-72
2023/04/25 05:05:28;;;;;;;16.83;13.33;;;7.10;99.90;;;;;;513981;231;27830;-73
2023/04/25 05:07:30;;;;;;;19.27;14.67;;;7.10;99.90;;;;;;514078;231;28286;-73
2023/04/25 05:09:31;;;;;;;17.97;13.57;;;7.10;99.90;;;;;;514049;231;28324;-72
2023/04/25 05:11:32;;;;;;;17.63;13.53;;;7.10;99.90;;;;;;514050;231;28449;-73
2023/04/25 05:13:33;;;;;;;18.10;12.47;;;7.10;99.90;;;;;;514041;231;27933;-73
2023/04/25 05:15:35;;;;;;;16.53;13.10;;;7.10;99.90;;;;;;514003;231;27715;-73
2023/04/25 05:17:36;;;;;;;14.47;12.20;;;7.10;99.90;;;;;;514052;231;27930;-73
2023/04/25 05:19:39;;;;;;;17.03;13.20;;;7.10;99.90;;;;;;514051;231;27746;-72
2023/04/25 05:21:39;;;;;;;22.23;15.67;;;7.00;99.90;;;;;;514020;231;27942;-73
2023/04/25 05:23:40;;;;;;;15.80;13.03;;;7.00;99.90;;;;;;514051;231;27870;-73
2023/04/25 05:25:41;;;;;;;17.37;13.53;;;6.90;99.90;;;;;;513968;231;28250;-73
2023/04/25 05:27:42;;;;;;;15.70;12.60;;;7.00;99.90;;;;;;514055;231;28224;-78
2023/04/25 05:29:44;;;;;;;17.00;13.60;;;7.00;99.90;;;;;;514041;231;28319;-73
2023/04/25 05:31:45;;;;;;;20.33;15.20;;;7.00;99.90;;;;;;514025;231;27827;-73
2023/04/25 05:33:46;;;;;;;18.53;14.00;;;6.90;99.90;;;;;;514035;231;27646;-72
2023/04/25 05:35:47;;;;;;;16.80;13.47;;;6.90;99.90;;;;;;513992;231;28005;-73
2023/04/25 05:37:49;;;;;;;16.73;13.80;;;6.90;99.90;;;;;;514053;231;28273;-73
2023/04/25 05:39:50;;;;;;;17.13;13.30;;;6.80;99.90;;;;;;514056;231;28239;-73
2023/04/25 05:41:51;;;;;;;16.57;13.13;;;6.90;99.90;;;;;;514058;231;27819;-71
2023/04/25 05:43:52;;;;;;;18.57;14.00;;;6.90;99.90;;;;;;514034;231;28503;-71
2023/04/25 05:45:54;;;;;;;17.33;13.77;;;6.90;99.90;;;;;;513964;231;28209;-73
2023/04/25 05:47:55;;;;;;;16.43;13.57;;;6.90;99.90;;;;;;514079;231;28270;-71
2023/04/25 05:49:56;;;;;;;18.03;14.30;;;7.00;99.90;;;;;;514102;231;27495;-70
2023/04/25 05:51:57;;;;;;;21.00;14.90;;;7.00;99.90;;;;;;514102;231;27926;-73
2023/04/25 05:53:59;;;;;;;19.90;15.17;;;7.00;99.90;;;;;;514098;231;27621;-73
2023/04/25 05:56:00;;;;;;;19.10;14.00;;;7.00;99.90;;;;;;514034;231;27943;-73
2023/04/25 05:58:01;;;;;;;21.60;14.67;;;7.00;99.90;;;;;;514076;231;27699;-73
2023/04/25 06:00:03;;;;;;;21.10;16.17;;;7.10;99.90;;;;;;514074;231;27754;-73
2023/04/25 06:02:04;;;;;;;19.37;14.90;;;7.10;99.90;;;;;;514027;231;27950;-73
2023/04/25 06:04:05;;;;;;;19.00;13.57;;;7.10;99.90;;;;;;514046;231;28100;-73
2023/04/25 06:06:06;;;;;;;17.70;13.90;;;7.10;99.90;;;;;;513960;231;28441;-71
2023/04/25 06:08:07;;;;;;;19.30;14.77;;;7.10;99.90;;;;;;514052;231;27860;-71
2023/04/25 06:10:09;;;;;;;19.70;14.97;;;7.10;99.90;;;;;;514032;231;27795;-71
2023/04/25 06:12:10;;;;;;;20.87;14.17;;;7.10;99.90;;;;;;514042;231;27824;-70
2023/04/25 06:14:11;;;;;;;17.87;14.03;;;7.10;99.90;;;;;;514001;231;27566;-75
2023/04/25 06:16:12;;;;;;;16.90;13.53;;;7.00;99.90;;;;;;513926;231;27375;-72
2023/04/25 06:18:14;;;;;;;19.20;14.10;;;7.10;99.90;;;;;;514065;231;28234;-73
2023/04/25 06:20:15;;;;;;;20.70;14.83;;;7.10;99.90;;;;;;514045;231;27672;-73
2023/04/25 06:22:16;;;;;;;19.03;14.37;;;7.10;99.90;;;;;;514051;231;28254;-73
2023/04/25 06:24:17;;;;;;;19.50;14.03;;;7.10;99.90;;;;;;513993;231;28125;-72
2023/04/25 06:26:19;;;;;;;16.20;13.30;;;7.10;99.90;;;;;;514026;231;27955;-73
2023/04/25 06:28:21;;;;;;;18.30;13.70;;;7.00;99.90;;;;;;514053;231;27714;-74
2023/04/25 06:30:25;;;;;;;17.70;13.93;;;7.00;99.90;;;;;;514003;231;27838;-73
2023/04/25 06:32:22;;;;;;;17.10;13.40;;;7.00;99.90;;;;;;514013;231;27839;-73
2023/04/25 06:34:24;;;;;;;20.30;13.63;;;7.00;99.90;;;;;;513953;231;28146;-73
2023/04/25 06:36:27;;;;;;;19.67;13.77;;;7.00;99.90;;;;;;514034;231;28378;-73
2023/04/25 06:38:26;;;;;;;17.50;13.13;;;7.10;99.90;;;;;;514025;231;27543;-74
2023/04/25 06:40:27;;;;;;;15.90;12.07;;;7.10;99.90;;;;;;514041;231;28145;-73
2023/04/25 06:42:29;;;;;;;18.93;14.00;;;7.10;99.90;;;;;;513986;231;28241;-71
2023/04/25 06:44:30;;;;;;;16.57;13.90;;;7.10;99.90;;;;;;513835;231;27946;-73
2023/04/25 06:46:31;;;;;;;16.07;12.13;;;7.10;99.90;;;;;;513971;231;27797;-73
2023/04/25 06:48:32;;;;;;;18.43;13.67;;;7.20;99.90;;;;;;513951;231;27984;-73
2023/04/25 06:50:34;;;;;;;17.07;12.83;;;7.20;99.90;;;;;;513920;231;27699;-73
2023/04/25 06:52:35;;;;;;;17.03;12.47;;;7.20;99.90;;;;;;513863;231;27567;-73
2023/04/25 06:54:36;;;;;;;16.80;12.80;;;7.20;99.90;;;;;;513985;231;27649;-73
2023/04/25 06:56:37;;;;;;;15.80;12.57;;;7.20;99.90;;;;;;514049;231;27723;-72
2023/04/25 06:58:39;;;;;;;19.00;13.80;;;7.20;99.90;;;;;;514073;231;28406;-74
2023/04/25 07:00:40;;;;;;;17.23;12.47;;;7.30;99.90;;;;;;514019;231;28281;-72
2023/04/25 07:02:43;;;;;;;16.73;12.67;;;7.30;99.90;;;;;;514033;231;27902;-73
2023/04/25 07:04:42;;;;;;;18.20;13.30;;;7.40;99.90;;;;;;513919;231;27890;-73
2023/04/25 07:06:44;;;;;;;16.20;12.90;;;7.50;99.90;;;;;;513995;231;27912;-73
2023/04/25 07:08:45;;;;;;;16.23;12.27;;;7.50;99.90;;;;;;514034;231;27459;-74
2023/04/25 07:10:46;;;;;;;16.47;11.80;;;7.50;99.90;;;;;;514032;231;27659;-73
2023/04/25 07:12:48;;;;;;;17.00;12.00;;;7.50;99.90;;;;;;514040;231;27774;-73
2023/04/25 07:14:49;;;;;;;17.73;12.90;;;7.50;99.90;;;;;;513956;231;27878;-73
2023/04/25 07:16:50;;;;;;;16.03;12.10;;;7.50;99.90;;;;;;514043;231;27828;-73
2023/04/25 07:18:51;;;;;;;15.50;11.47;;;7.50;99.90;;;;;;514091;231;28251;-74
2023/04/25 07:20:53;;;;;;;15.17;11.43;;;7.50;99.90;;;;;;514087;231;27771;-73
2023/04/25 07:22:54;;;;;;;14.57;10.50;;;7.50;99.90;;;;;;514065;231;27824;-73
2023/04/25 07:24:55;;;;;;;13.67;11.27;;;7.50;99.90;;;;;;513996;231;27865;-73
2023/04/25 07:26:57;;;;;;;13.70;10.70;;;7.50;99.90;;;;;;514021;231;27949;-73
2023/04/25 07:28:58;;;;;;;14.97;11.20;;;7.40;99.90;;;;;;514023;231;28142;-74
2023/04/25 07:30:59;;;;;;;15.43;11.33;;;7.40;99.90;;;;;;514026;231;28204;-73
2023/04/25 07:33:00;;;;;;;14.80;10.80;;;7.30;99.90;;;;;;514054;231;27935;-74
2023/04/25 07:35:01;;;;;;;13.50;10.27;;;7.30;99.90;;;;;;513954;231;28334;-72
2023/04/25 07:37:03;;;;;;;15.63;11.70;;;7.40;99.90;;;;;;514007;231;28432;-73
2023/04/25 07:39:04;;;;;;;12.00;9.93;;;7.40;99.90;;;;;;514042;231;27879;-75
2023/04/25 07:41:05;;;;;;;13.37;10.50;;;7.50;99.90;;;;;;514096;231;27441;-73
2023/04/25 07:43:06;;;;;;;13.30;10.10;;;7.50;99.90;;;;;;514005;231;27957;-73
2023/04/25 07:45:09;;;;;;;13.40;10.20;;;7.60;99.90;;;;;;513879;231;28254;-73
2023/04/25 07:47:09;;;;;;;13.20;10.53;;;7.60;99.90;;;;;;514042;231;27932;-73
2023/04/25 07:49:10;;;;;;;11.97;9.43;;;7.60;99.90;;;;;;514052;231;27763;-73
2023/04/25 07:51:12;;;;;;;11.57;8.40;;;7.70;99.90;;;;;;514014;231;27998;-73
2023/04/25 07:53:13;;;;;;;11.00;8.73;;;7.70;99.90;;;;;;514020;231;27720;-73
2023/04/25 07:55:14;;;;;;;11.43;9.23;;;7.60;99.90;;;;;;513940;231;28176;-73
2023/04/25 07:57:16;;;;;;;12.87;9.67;;;7.60;99.90;;;;;;514007;231;27836;-73
2023/04/25 07:59:16;;;;;;;13.37;10.43;;;7.50;99.90;;;;;;513940;231;28326;-74
2023/04/25 08:01:18;;;;;;;10.00;8.70;;;7.50;99.90;;;;;;514015;231;27547;-73
2023/04/25 08:03:19;;;;;;;11.43;8.20;;;7.40;99.90;;;;;;514019;231;27828;-73
2023/04/25 08:05:21;;;;;;;10.10;8.47;;;7.50;99.90;;;;;;513911;231;27671;-73
2023/04/25 08:07:21;;;;;;;11.20;8.73;;;7.50;99.90;;;;;;514018;231;27917;-72
2023/04/25 08:09:23;;;;;;;11.53;9.57;;;7.60;99.90;;;;;;514033;231;28055;-74
2023/04/25 08:11:25;;;;;;;12.90;9.43;;;7.70;99.90;;;;;;514026;231;27875;-73
2023/04/25 08:13:25;;;;;;;10.27;8.60;;;7.80;99.90;;;;;;514002;231;27755;-73
2023/04/25 08:15:26;;;;;;;11.03;8.97;;;7.90;99.90;;;;;;513960;231;27763;-73
2023/04/25 08:17:28;;;;;;;10.20;9.10;;;8.00;99.90;;;;;;514005;231;27906;-74
2023/04/25 08:19:29;;;;;;;9.67;8.23;;;8.30;99.90;;;;;;513845;231;28550;-74
2023/04/25 08:21:31;;;;;;;10.50;7.73;;;8.80;99.90;;;;;;513904;231;28344;-73
2023/04/25 08:23:31;;;;;;;11.63;9.83;;;9.20;99.90;;;;;;513822;231;28312;-74
2023/04/25 08:25:33;;;;;;;11.20;9.97;;;9.50;99.90;;;;;;513841;231;28223;-73
2023/04/25 08:27:34;;;;;;;13.50;9.97;;;9.60;99.90;;;;;;513894;231;27845;-73
2023/04/25 08:29:35;;;;;;;13.40;10.37;;;9.40;99.90;;;;;;513990;231;27840;-74
2023/04/25 08:31:36;;;;;;;13.83;10.03;;;9.40;99.90;;;;;;513967;231;27916;-73
2023/04/25 08:33:38;;;;;;;16.90;10.23;;;9.10;99.90;;;;;;514016;231;27796;-73
2023/04/25 08:35:39;;;;;;;11.73;10.47;;;9.00;99.90;;;;;;513944;231;27888;-73
2023/04/25 08:37:41;;;;;;;15.40;9.83;;;8.70;99.90;;;;;;513996;231;27927;-73
2023/04/25 08:39:42;;;;;;;14.07;10.37;;;8.40;99.90;;;;;;514071;231;27911;-74
2023/04/25 08:41:44;;;;;;;9.57;8.57;;;7.90;99.90;;;;;;514038;231;28350;-73
2023/04/25 08:43:44;;;;;;;9.33;7.87;;;7.50;99.90;;;;;;514012;231;28314;-73
2023/04/25 08:45:46;;;;;;;12.40;8.57;;;7.30;99.90;;;;;;513959;231;27973;-73
2023/04/25 08:47:48;;;;;;;9.67;7.90;;;7.30;99.90;;;;;;514047;231;28265;-73
2023/04/25 08:49:48;;;;;;;11.20;6.73;;;7.10;99.90;;;;;;513931;231;28009;-74
2023/04/25 08:51:51;;;;;;;8.87;6.73;;;6.90;99.90;;;;;;514021;231;27674;-73
2023/04/25 08:53:50;;;;;;;9.73;7.50;;;6.90;99.90;;;;;;513884;231;27878;-73
2023/04/25 08:55:51;;;;;;;8.70;7.17;;;6.80;99.90;;;;;;513945;231;27709;-73
2023/04/25 08:57:53;;;;;;;14.63;8.57;;;6.90;99.90;;;;;;514016;231;27888;-73
2023/04/25 08:59:54;;;;;;;10.97;8.40;;;6.90;99.90;;;;;;514022;231;27751;-74
2023/04/25 09:01:55;;;;;;;15.83;9.20;;;6.80;99.90;;;;;;514031;231;28097;-73
2023/04/25 09:03:56;;;;;;;11.90;9.10;;;7.10;99.90;;;;;;514017;231;27896;-74
2023/04/25 09:05:58;;;;;;;9.53;7.50;;;6.80;99.90;;;;;;513931;231;27961;-73
2023/04/25 09:08:00;;;;;;;11.87;8.40;;;6.90;99.90;;;;;;514035;231;27792;-73
2023/04/25 09:10:03;;;;;;;10.40;8.43;;;7.00;99.90;;;;;;513957;231;27698;-73
2023/04/25 09:12:01;;;;;;;11.57;7.33;;;7.00;99.90;;;;;;513762;231;28214;-73
2023/04/25 09:14:03;;;;;;;9.10;7.00;;;7.00;99.90;;;;;;514001;231;28305;-73
2023/04/25 09:16:04;;;;;;;10.40;8.10;;;7.30;99.90;;;;;;513953;231;29311;-73
2023/04/25 09:18:05;;;;;;;12.57;8.40;;;7.50;99.90;;;;;;514030;231;27814;-73
2023/04/25 09:20:07;;;;;;;14.90;8.40;;;7.70;99.90;;;;;;514012;231;27823;-74
2023/04/25 09:22:08;;;;;;;20.50;8.77;;;7.70;99.90;;;;;;514011;231;27831;-73
2023/04/25 09:24:09;;;;;;;10.03;8.03;;;7.30;99.90;;;;;;514017;231;27701;-75
2023/04/25 09:26:10;;;;;;;11.63;8.23;;;7.20;99.90;;;;;;513979;231;27609;-72
2023/04/25 09:28:11;;;;;;;13.00;8.95;;;7.10;99.90;;;;;;510194;231;35753;-73
2023/04/25 09:30:13;;;;;;;11.90;8.20;;;7.10;99.90;;;;;;514022;231;27541;-73
2023/04/25 09:32:14;;;;;;;10.27;7.77;;;7.60;99.90;;;;;;513976;231;27821;-73
2023/04/25 09:34:16;;;;;;;11.13;7.50;;;6.80;99.90;;;;;;513950;231;28038;-73
2023/04/25 09:36:16;;;;;;;12.93;7.63;;;7.50;99.90;;;;;;513947;231;28523;-74
2023/04/25 09:38:18;;;;;;;9.50;6.63;;;8.00;99.90;;;;;;514062;231;28135;-72
2023/04/25 09:40:19;;;;;;;6.53;5.10;;;7.50;99.90;;;;;;514040;231;28245;-73
2023/04/25 09:42:20;;;;;;;6.53;5.00;;;7.70;99.90;;;;;;514049;231;28016;-73
2023/04/25 09:44:21;;;;;;;8.97;6.50;;;7.90;99.90;;;;;;513980;231;28391;-73
2023/04/25 09:46:23;;;;;;;6.67;5.00;;;7.60;99.90;;;;;;514055;231;27828;-73
2023/04/25 09:48:24;;;;;;;8.50;6.50;;;7.10;99.90;;;;;;514055;231;27770;-73
2023/04/25 09:50:25;;;;;;;8.80;6.30;;;7.00;99.90;;;;;;514034;231;27832;-73
2023/04/25 09:52:26;;;;;;;8.80;6.37;;;7.00;99.90;;;;;;514027;231;27632;-73
2023/04/25 09:54:28;;;;;;;10.30;6.70;;;7.50;99.90;;;;;;513958;231;27748;-73
2023/04/25 09:56:29;;;;;;;10.10;7.17;;;7.70;99.90;;;;;;513990;231;28292;-74
2023/04/25 09:58:30;;;;;;;13.80;7.73;;;7.90;99.90;;;;;;513988;231;27545;-72
2023/04/25 10:00:31;;;;;;;9.73;8.30;;;7.80;99.90;;;;;;513997;231;27822;-73
2023/04/25 10:02:33;;;;;;;10.67;7.83;;;7.90;99.90;;;;;;513995;231;27333;-74
2023/04/25 10:04:34;;;;;;;9.80;7.90;;;8.10;99.90;;;;;;513967;231;27545;-73
2023/04/25 10:06:35;;;;;;;12.00;8.03;;;8.40;99.90;;;;;;514053;231;27828;-74
2023/04/25 10:08:36;;;;;;;18.23;8.70;;;8.30;99.90;;;;;;514034;231;27789;-73
2023/04/25 10:10:38;;;;;;;9.23;6.77;;;8.50;99.90;;;;;;513858;231;27858;-73
2023/04/25 10:12:40;;;;;;;14.33;7.27;;;7.50;99.90;;;;;;514018;231;27798;-73
2023/04/25 10:14:40;;;;;;;11.70;6.10;;;8.50;99.90;;;;;;513937;231;27823;-73
2023/04/25 10:16:42;;;;;;;14.70;7.47;;;8.20;99.90;;;;;;513945;231;27496;-74
2023/04/25 10:18:43;;;;;;;9.77;6.00;;;9.20;99.90;;;;;;514007;231;27805;-73
2023/04/25 10:20:44;;;;;;;9.63;6.27;;;9.10;99.90;;;;;;514078;231;28095;-74
2023/04/25 10:22:45;;;;;;;10.77;7.23;;;9.20;99.90;;;;;;514051;231;28237;-73
2023/04/25 10:24:47;;;;;;;10.00;6.53;;;8.80;99.90;;;;;;513978;231;28272;-74
2023/04/25 10:26:48;;;;;;;9.13;6.27;;;9.10;99.90;;;;;;514074;231;28283;-74
2023/04/25 10:28:49;;;;;;;12.93;6.50;;;9.40;99.90;;;;;;514027;231;27896;-73